sensor_id;sensor_type;location;lat;lon;timestamp;temperature;humidity
11700;DHT22;5906;51.660;6.674;2022-08-06T00:00:16;12.10;99.90
11700;DHT22;5906;51.660;6.674;2022-08-06T00:02:52;12.10;99.90
11700;DHT22;5906;51.660;6.674;2022-08-06T00:05:19;12.10;99.90
11700;DHT22;5906;51.660;6.674;2022-08-06T00:07:57;12.00;99.90
11700;DHT22;5906;51.660;6.674;2022-08-06T00:10:28;12.00;99.90
11700;DHT22;5906;51.660;6.674;2022-08-06T00:12:58;11.90;99.90
11700;DHT22;5906;51.660;6.674;2022-08-06T00:15:27;11.90;99.90
11700;DHT22;5906;51.660;6.674;2022-08-06T00:18:14;11.90;99.90
11700;DHT22;5906;51.660;6.674;2022-08-06T00:20:44;11.90;99.90
11700;DHT22;5906;51.660;6.674;2022-08-06T00:23:15;11.90;99.90
11700;DHT22;5906;51.660;6.674;2022-08-06T00:25:44;11.80;99.90
11700;DHT22;5906;51.660;6.674;2022-08-06T00:28:17;11.70;99.90
11700;DHT22;5906;51.660;6.674;2022-08-06T00:30:46;11.70;99.90
11700;DHT22;5906;51.660;6.674;2022-08-06T00:33:13;11.70;99.90
11700;DHT22;5906;51.660;6.674;2022-08-06T00:35:41;11.60;99.90
11700;DHT22;5906;51.660;6.674;2022-08-06T00:38:12;11.60;99.90
11700;DHT22;5906;51.660;6.674;2022-08-06T00:40:40;11.50;99.90
11700;DHT22;5906;51.660;6.674;2022-08-06T00:43:24;11.50;99.90
11700;DHT22;5906;51.660;6.674;2022-08-06T00:45:50;11.50;99.90
11700;DHT22;5906;51.660;6.674;2022-08-06T00:48:21;11.50;99.90
11700;DHT22;5906;51.660;6.674;2022-08-06T00:51:08;11.50;99.90
11700;DHT22;5906;51.660;6.674;2022-08-06T00:53:44;11.40;99.90
11700;DHT22;5906;51.660;6.674;2022-08-06T00:56:14;11.50;99.90
11700;DHT22;5906;51.660;6.674;2022-08-06T00:58:40;11.40;99.90
11700;DHT22;5906;51.660;6.674;2022-08-06T01:01:09;11.40;99.90
11700;DHT22;5906;51.660;6.674;2022-08-06T01:03:46;11.30;99.90
11700;DHT22;5906;51.660;6.674;2022-08-06T01:06:19;11.30;99.90
11700;DHT22;5906;51.660;6.674;2022-08-06T01:09:07;11.30;99.90
11700;DHT22;5906;51.660;6.674;2022-08-06T01:11:36;11.30;99.90
11700;DHT22;5906;51.660;6.674;2022-08-06T01:14:03;11.30;99.90
11700;DHT22;5906;51.660;6.674;2022-08-06T01:16:54;11.30;99.90
11700;DHT22;5906;51.660;6.674;2022-08-06T01:19:30;11.30;99.90
11700;DHT22;5906;51.660;6.674;2022-08-06T01:28:35;11.10;99.90
11700;DHT22;5906;51.660;6.674;2022-08-06T01:31:10;11.00;99.90
11700;DHT22;5906;51.660;6.674;2022-08-06T01:33:50;11.00;99.90
11700;DHT22;5906;51.660;6.674;2022-08-06T01:36:46;11.00;99.90
11700;DHT22;5906;51.660;6.674;2022-08-06T01:39:17;10.90;99.90
11700;DHT22;5906;51.660;6.674;2022-08-06T01:42:05;10.90;99.90
11700;DHT22;5906;51.660;6.674;2022-08-06T01:44:35;10.90;99.90
11700;DHT22;5906;51.660;6.674;2022-08-06T01:47:08;10.90;99.90
11700;DHT22;5906;51.660;6.674;2022-08-06T01:49:46;10.90;99.90
11700;DHT22;5906;51.660;6.674;2022-08-06T01:52:43;10.90;99.90
11700;DHT22;5906;51.660;6.674;2022-08-06T01:55:28;10.90;99.90
11700;DHT22;5906;51.660;6.674;2022-08-06T01:58:21;10.90;99.90
11700;DHT22;5906;51.660;6.674;2022-08-06T02:00:58;10.80;99.90
11700;DHT22;5906;51.660;6.674;2022-08-06T02:03:43;10.90;99.90
11700;DHT22;5906;51.660;6.674;2022-08-06T02:06:32;10.90;99.90
11700;DHT22;5906;51.660;6.674;2022-08-06T02:09:03;10.90;99.90
11700;DHT22;5906;51.660;6.674;2022-08-06T02:11:58;10.80;99.90
11700;DHT22;5906;51.660;6.674;2022-08-06T02:14:36;10.80;99.90
11700;DHT22;5906;51.660;6.674;2022-08-06T02:17:11;10.80;99.90
11700;DHT22;5906;51.660;6.674;2022-08-06T02:19:47;10.80;99.90
11700;DHT22;5906;51.660;6.674;2022-08-06T02:22:38;10.80;99.90
11700;DHT22;5906;51.660;6.674;2022-08-06T02:25:10;10.80;99.90
11700;DHT22;5906;51.660;6.674;2022-08-06T02:27:49;10.70;99.90
11700;DHT22;5906;51.660;6.674;2022-08-06T02:30:27;10.70;99.90
11700;DHT22;5906;51.660;6.674;2022-08-06T02:33:03;10.70;99.90
11700;DHT22;5906;51.660;6.674;2022-08-06T02:35:34;10.60;99.90
11700;DHT22;5906;51.660;6.674;2022-08-06T02:38:26;10.60;99.90
11700;DHT22;5906;51.660;6.674;2022-08-06T02:41:00;10.50;99.90
11700;DHT22;5906;51.660;6.674;2022-08-06T02:43:34;10.50;99.90
11700;DHT22;5906;51.660;6.674;2022-08-06T02:46:22;10.40;99.90
11700;DHT22;5906;51.660;6.674;2022-08-06T02:48:57;10.40;99.90
11700;DHT22;5906;51.660;6.674;2022-08-06T02:51:38;10.40;99.90
11700;DHT22;5906;51.660;6.674;2022-08-06T02:54:37;10.30;99.90
11700;DHT22;5906;51.660;6.674;2022-08-06T02:57:20;10.30;99.90
11700;DHT22;5906;51.660;6.674;2022-08-06T02:59:52;10.30;99.90
11700;DHT22;5906;51.660;6.674;2022-08-06T03:02:23;10.40;99.90
11700;DHT22;5906;51.660;6.674;2022-08-06T03:04:53;10.30;99.90
11700;DHT22;5906;51.660;6.674;2022-08-06T03:07:26;10.40;99.90
11700;DHT22;5906;51.660;6.674;2022-08-06T03:09:57;10.30;99.90
11700;DHT22;5906;51.660;6.674;2022-08-06T03:12:25;10.30;99.90
11700;DHT22;5906;51.660;6.674;2022-08-06T03:14:58;10.30;99.90
11700;DHT22;5906;51.660;6.674;2022-08-06T03:17:37;10.20;99.90
11700;DHT22;5906;51.660;6.674;2022-08-06T03:20:05;10.20;99.90
11700;DHT22;5906;51.660;6.674;2022-08-06T03:22:44;10.20;99.90
11700;DHT22;5906;51.660;6.674;2022-08-06T03:25:13;10.20;99.90
11700;DHT22;5906;51.660;6.674;2022-08-06T03:27:43;10.20;99.90
11700;DHT22;5906;51.660;6.674;2022-08-06T03:30:20;10.20;99.90
11700;DHT22;5906;51.660;6.674;2022-08-06T03:33:18;10.10;99.90
11700;DHT22;5906;51.660;6.674;2022-08-06T03:36:05;10.10;99.90
11700;DHT22;5906;51.660;6.674;2022-08-06T03:38:38;10.10;99.90
11700;DHT22;5906;51.660;6.674;2022-08-06T03:41:07;10.10;99.90
11700;DHT22;5906;51.660;6.674;2022-08-06T03:43:34;10.10;99.90
11700;DHT22;5906;51.660;6.674;2022-08-06T03:46:31;10.10;99.90
11700;DHT22;5906;51.660;6.674;2022-08-06T03:49:03;10.00;99.90
11700;DHT22;5906;51.660;6.674;2022-08-06T03:51:35;10.00;99.90
11700;DHT22;5906;51.660;6.674;2022-08-06T03:54:25;10.00;99.90
11700;DHT22;5906;51.660;6.674;2022-08-06T03:57:08;10.00;99.90
11700;DHT22;5906;51.660;6.674;2022-08-06T03:59:38;10.00;99.90
11700;DHT22;5906;51.660;6.674;2022-08-06T04:02:27;9.90;99.90
11700;DHT22;5906;51.660;6.674;2022-08-06T04:05:14;9.90;99.90
11700;DHT22;5906;51.660;6.674;2022-08-06T04:07:42;9.80;99.90
11700;DHT22;5906;51.660;6.674;2022-08-06T04:10:33;9.90;99.90
11700;DHT22;5906;51.660;6.674;2022-08-06T04:13:13;9.90;99.90
11700;DHT22;5906;51.660;6.674;2022-08-06T04:16:01;9.90;99.90
11700;DHT22;5906;51.660;6.674;2022-08-06T04:18:33;9.80;99.90
11700;DHT22;5906;51.660;6.674;2022-08-06T04:21:26;9.80;99.90
11700;DHT22;5906;51.660;6.674;2022-08-06T04:24:14;9.90;99.90
11700;DHT22;5906;51.660;6.674;2022-08-06T04:26:44;9.90;99.90
11700;DHT22;5906;51.660;6.674;2022-08-06T04:29:14;9.90;99.90
11700;DHT22;5906;51.660;6.674;2022-08-06T04:31:44;9.90;99.90
11700;DHT22;5906;51.660;6.674;2022-08-06T04:34:32;9.80;99.90
11700;DHT22;5906;51.660;6.674;2022-08-06T04:37:14;9.80;99.90
11700;DHT22;5906;51.660;6.674;2022-08-06T04:39:42;9.90;99.90
11700;DHT22;5906;51.660;6.674;2022-08-06T04:42:17;9.90;99.90
11700;DHT22;5906;51.660;6.674;2022-08-06T04:44:45;9.90;99.90
11700;DHT22;5906;51.660;6.674;2022-08-06T04:47:28;9.90;99.90
11700;DHT22;5906;51.660;6.674;2022-08-06T04:50:13;10.00;99.90
11700;DHT22;5906;51.660;6.674;2022-08-06T04:52:48;10.30;99.90
11700;DHT22;5906;51.660;6.674;2022-08-06T04:55:22;10.70;99.90
11700;DHT22;5906;51.660;6.674;2022-08-06T04:57:51;11.10;99.90
11700;DHT22;5906;51.660;6.674;2022-08-06T05:00:35;11.30;99.90
11700;DHT22;5906;51.660;6.674;2022-08-06T05:03:22;11.40;99.90
11700;DHT22;5906;51.660;6.674;2022-08-06T05:09:17;11.80;99.90
11700;DHT22;5906;51.660;6.674;2022-08-06T05:11:56;12.00;99.90
11700;DHT22;5906;51.660;6.674;2022-08-06T05:14:36;12.30;99.90
11700;DHT22;5906;51.660;6.674;2022-08-06T05:17:04;12.40;99.90
11700;DHT22;5906;51.660;6.674;2022-08-06T05:19:46;12.50;99.90
11700;DHT22;5906;51.660;6.674;2022-08-06T05:22:16;12.70;99.90
11700;DHT22;5906;51.660;6.674;2022-08-06T05:24:45;12.80;99.90
11700;DHT22;5906;51.660;6.674;2022-08-06T05:27:29;12.90;99.90
11700;DHT22;5906;51.660;6.674;2022-08-06T05:30:17;13.10;99.90
11700;DHT22;5906;51.660;6.674;2022-08-06T05:32:48;13.20;99.90
11700;DHT22;5906;51.660;6.674;2022-08-06T05:35:22;13.40;99.90
11700;DHT22;5906;51.660;6.674;2022-08-06T05:38:07;13.50;99.90
11700;DHT22;5906;51.660;6.674;2022-08-06T05:40:37;13.70;99.90
11700;DHT22;5906;51.660;6.674;2022-08-06T05:43:23;13.90;99.90
11700;DHT22;5906;51.660;6.674;2022-08-06T05:45:54;14.00;99.90
11700;DHT22;5906;51.660;6.674;2022-08-06T05:48:24;14.20;99.90
11700;DHT22;5906;51.660;6.674;2022-08-06T05:51:02;14.40;99.90
11700;DHT22;5906;51.660;6.674;2022-08-06T05:53:44;14.50;99.90
11700;DHT22;5906;51.660;6.674;2022-08-06T05:56:37;14.60;99.90
11700;DHT22;5906;51.660;6.674;2022-08-06T05:59:21;14.90;99.90
11700;DHT22;5906;51.660;6.674;2022-08-06T06:02:05;15.10;93.00
11700;DHT22;5906;51.660;6.674;2022-08-06T06:04:35;15.30;1.00
11700;DHT22;5906;51.660;6.674;2022-08-06T06:07:04;15.50;1.00
11700;DHT22;5906;51.660;6.674;2022-08-06T06:09:36;15.70;1.00
11700;DHT22;5906;51.660;6.674;2022-08-06T06:12:24;15.90;99.90
11700;DHT22;5906;51.660;6.674;2022-08-06T06:15:00;16.00;99.90
11700;DHT22;5906;51.660;6.674;2022-08-06T06:18:07;16.10;4.00
11700;DHT22;5906;51.660;6.674;2022-08-06T06:23:56;16.30;1.00
11700;DHT22;5906;51.660;6.674;2022-08-06T06:26:48;16.50;99.90
11700;DHT22;5906;51.660;6.674;2022-08-06T06:29:29;16.70;1.00
11700;DHT22;5906;51.660;6.674;2022-08-06T06:32:19;16.80;1.00
11700;DHT22;5906;51.660;6.674;2022-08-06T06:37:53;17.20;99.90
11700;DHT22;5906;51.660;6.674;2022-08-06T06:42:56;17.40;1.00
11700;DHT22;5906;51.660;6.674;2022-08-06T06:45:36;17.60;99.90
11700;DHT22;5906;51.660;6.674;2022-08-06T06:48:35;17.70;1.00
11700;DHT22;5906;51.660;6.674;2022-08-06T06:51:09;17.90;1.00
11700;DHT22;5906;51.660;6.674;2022-08-06T06:53:56;18.00;1.00
11700;DHT22;5906;51.660;6.674;2022-08-06T06:56:39;18.00;1.00
11700;DHT22;5906;51.660;6.674;2022-08-06T06:59:15;18.20;1.00
11700;DHT22;5906;51.660;6.674;2022-08-06T07:01:45;18.50;1.00
11700;DHT22;5906;51.660;6.674;2022-08-06T07:04:20;18.60;1.00
11700;DHT22;5906;51.660;6.674;2022-08-06T07:06:54;18.80;99.90
11700;DHT22;5906;51.660;6.674;2022-08-06T07:09:34;18.90;99.90
11700;DHT22;5906;51.660;6.674;2022-08-06T07:12:07;19.10;1.00
11700;DHT22;5906;51.660;6.674;2022-08-06T07:14:46;19.20;1.00
11700;DHT22;5906;51.660;6.674;2022-08-06T07:17:25;19.40;1.00
11700;DHT22;5906;51.660;6.674;2022-08-06T07:20:13;19.30;1.00
11700;DHT22;5906;51.660;6.674;2022-08-06T07:22:44;19.40;1.00
11700;DHT22;5906;51.660;6.674;2022-08-06T07:25:40;19.60;1.00
11700;DHT22;5906;51.660;6.674;2022-08-06T07:28:22;19.90;1.00
11700;DHT22;5906;51.660;6.674;2022-08-06T07:30:55;20.20;1.00
11700;DHT22;5906;51.660;6.674;2022-08-06T07:33:32;20.40;99.90
11700;DHT22;5906;51.660;6.674;2022-08-06T07:36:22;20.80;99.90
11700;DHT22;5906;51.660;6.674;2022-08-06T07:38:57;21.10;99.90
11700;DHT22;5906;51.660;6.674;2022-08-06T07:41:26;21.30;99.90
11700;DHT22;5906;51.660;6.674;2022-08-06T07:44:14;21.30;99.90
11700;DHT22;5906;51.660;6.674;2022-08-06T07:46:48;21.30;99.90
11700;DHT22;5906;51.660;6.674;2022-08-06T07:49:21;21.50;99.90
11700;DHT22;5906;51.660;6.674;2022-08-06T07:52:14;21.60;99.90
11700;DHT22;5906;51.660;6.674;2022-08-06T07:54:43;21.20;99.90
11700;DHT22;5906;51.660;6.674;2022-08-06T07:57:12;21.20;99.90
11700;DHT22;5906;51.660;6.674;2022-08-06T07:59:41;21.20;99.90
11700;DHT22;5906;51.660;6.674;2022-08-06T08:02:12;21.30;99.90
11700;DHT22;5906;51.660;6.674;2022-08-06T08:04:40;21.40;99.90
11700;DHT22;5906;51.660;6.674;2022-08-06T08:07:28;21.80;99.90
11700;DHT22;5906;51.660;6.674;2022-08-06T08:10:18;22.10;99.90
11700;DHT22;5906;51.660;6.674;2022-08-06T08:12:54;21.80;99.90
11700;DHT22;5906;51.660;6.674;2022-08-06T08:15:22;21.40;99.90
11700;DHT22;5906;51.660;6.674;2022-08-06T08:17:50;21.60;99.90
11700;DHT22;5906;51.660;6.674;2022-08-06T08:20:28;21.70;99.90
11700;DHT22;5906;51.660;6.674;2022-08-06T08:23:04;21.90;99.90
11700;DHT22;5906;51.660;6.674;2022-08-06T08:25:34;21.90;99.90
11700;DHT22;5906;51.660;6.674;2022-08-06T08:28:09;21.90;99.90
11700;DHT22;5906;51.660;6.674;2022-08-06T08:30:41;21.70;99.90
11700;DHT22;5906;51.660;6.674;2022-08-06T08:33:10;21.40;99.90
11700;DHT22;5906;51.660;6.674;2022-08-06T08:35:44;21.30;99.90
11700;DHT22;5906;51.660;6.674;2022-08-06T08:38:29;21.10;99.90
11700;DHT22;5906;51.660;6.674;2022-08-06T08:40:59;21.10;99.90
11700;DHT22;5906;51.660;6.674;2022-08-06T08:43:52;21.30;99.90
11700;DHT22;5906;51.660;6.674;2022-08-06T08:46:42;21.30;99.90
11700;DHT22;5906;51.660;6.674;2022-08-06T08:49:37;21.80;99.90
11700;DHT22;5906;51.660;6.674;2022-08-06T08:52:19;22.10;99.90
11700;DHT22;5906;51.660;6.674;2022-08-06T08:54:51;21.90;99.90
11700;DHT22;5906;51.660;6.674;2022-08-06T08:57:18;21.80;99.90
11700;DHT22;5906;51.660;6.674;2022-08-06T09:00:07;21.80;99.90
11700;DHT22;5906;51.660;6.674;2022-08-06T09:02:40;21.80;99.90
11700;DHT22;5906;51.660;6.674;2022-08-06T09:05:17;21.60;99.90
11700;DHT22;5906;51.660;6.674;2022-08-06T09:07:44;21.50;99.90
11700;DHT22;5906;51.660;6.674;2022-08-06T09:10:27;21.40;99.90
11700;DHT22;5906;51.660;6.674;2022-08-06T09:12:58;21.40;99.90
11700;DHT22;5906;51.660;6.674;2022-08-06T09:15:24;21.40;99.90
11700;DHT22;5906;51.660;6.674;2022-08-06T09:17:51;21.40;99.90
11700;DHT22;5906;51.660;6.674;2022-08-06T09:20:38;21.50;99.90
11700;DHT22;5906;51.660;6.674;2022-08-06T09:23:12;21.70;99.90
11700;DHT22;5906;51.660;6.674;2022-08-06T09:25:50;21.80;99.90
11700;DHT22;5906;51.660;6.674;2022-08-06T09:28:39;21.90;99.90
11700;DHT22;5906;51.660;6.674;2022-08-06T09:31:15;21.90;99.90
11700;DHT22;5906;51.660;6.674;2022-08-06T09:34:06;21.70;99.90
11700;DHT22;5906;51.660;6.674;2022-08-06T09:36:53;21.70;99.90
11700;DHT22;5906;51.660;6.674;2022-08-06T09:39:32;21.70;99.90
11700;DHT22;5906;51.660;6.674;2022-08-06T09:42:48;21.60;99.90
11700;DHT22;5906;51.660;6.674;2022-08-06T09:45:19;21.50;99.90
11700;DHT22;5906;51.660;6.674;2022-08-06T09:48:07;21.50;99.90
11700;DHT22;5906;51.660;6.674;2022-08-06T09:50:48;21.50;99.90
11700;DHT22;5906;51.660;6.674;2022-08-06T09:53:17;21.40;99.90
11700;DHT22;5906;51.660;6.674;2022-08-06T09:55:53;21.40;99.90
11700;DHT22;5906;51.660;6.674;2022-08-06T09:58:32;21.60;99.90
11700;DHT22;5906;51.660;6.674;2022-08-06T10:01:14;22.00;99.90
11700;DHT22;5906;51.660;6.674;2022-08-06T10:03:54;22.40;99.90
11700;DHT22;5906;51.660;6.674;2022-08-06T10:06:35;22.80;98.40
11700;DHT22;5906;51.660;6.674;2022-08-06T10:09:17;23.50;89.60
11700;DHT22;5906;51.660;6.674;2022-08-06T10:12:17;23.70;58.00
11700;DHT22;5906;51.660;6.674;2022-08-06T10:14:44;24.00;42.50
11700;DHT22;5906;51.660;6.674;2022-08-06T10:17:21;24.30;27.90
11700;DHT22;5906;51.660;6.674;2022-08-06T10:20:09;24.50;20.10
11700;DHT22;5906;51.660;6.674;2022-08-06T10:22:54;24.60;18.10
11700;DHT22;5906;51.660;6.674;2022-08-06T10:25:24;24.70;16.50
11700;DHT22;5906;51.660;6.674;2022-08-06T10:27:56;24.70;10.40
11700;DHT22;5906;51.660;6.674;2022-08-06T10:30:23;24.30;12.40
11700;DHT22;5906;51.660;6.674;2022-08-06T10:33:06;23.90;14.30
11700;DHT22;5906;51.660;6.674;2022-08-06T10:35:46;23.70;21.90
11700;DHT22;5906;51.660;6.674;2022-08-06T10:38:20;23.90;22.10
11700;DHT22;5906;51.660;6.674;2022-08-06T10:41:03;24.20;16.20
11700;DHT22;5906;51.660;6.674;2022-08-06T10:43:34;24.30;12.70
11700;DHT22;5906;51.660;6.674;2022-08-06T10:46:04;24.50;6.60
11700;DHT22;5906;51.660;6.674;2022-08-06T10:48:45;24.50;8.40
11700;DHT22;5906;51.660;6.674;2022-08-06T10:51:33;24.40;6.40
11700;DHT22;5906;51.660;6.674;2022-08-06T10:54:20;24.50;2.90
11700;DHT22;5906;51.660;6.674;2022-08-06T10:56:50;24.80;1.00
11700;DHT22;5906;51.660;6.674;2022-08-06T10:59:17;24.70;1.00
11700;DHT22;5906;51.660;6.674;2022-08-06T11:04:52;24.50;1.00
11700;DHT22;5906;51.660;6.674;2022-08-06T11:10:59;24.00;6.00
11700;DHT22;5906;51.660;6.674;2022-08-06T11:16:27;23.50;13.60
11700;DHT22;5906;51.660;6.674;2022-08-06T11:19:10;23.50;15.50
11700;DHT22;5906;51.660;6.674;2022-08-06T11:21:42;23.50;11.40
11700;DHT22;5906;51.660;6.674;2022-08-06T11:24:29;23.50;13.60
11700;DHT22;5906;51.660;6.674;2022-08-06T11:27:03;23.50;14.60
11700;DHT22;5906;51.660;6.674;2022-08-06T11:30:09;23.50;12.80
11700;DHT22;5906;51.660;6.674;2022-08-06T11:32:46;23.50;14.90
11700;DHT22;5906;51.660;6.674;2022-08-06T11:41:26;24.90;1.00
11700;DHT22;5906;51.660;6.674;2022-08-06T11:44:15;25.30;1.00
11700;DHT22;5906;51.660;6.674;2022-08-06T11:47:07;25.60;1.00
11700;DHT22;5906;51.660;6.674;2022-08-06T11:55:07;25.50;1.00
11700;DHT22;5906;51.660;6.674;2022-08-06T11:57:38;25.40;1.00
11700;DHT22;5906;51.660;6.674;2022-08-06T12:00:20;25.00;1.00
11700;DHT22;5906;51.660;6.674;2022-08-06T12:02:52;24.70;1.00
11700;DHT22;5906;51.660;6.674;2022-08-06T12:08:20;24.50;1.00
11700;DHT22;5906;51.660;6.674;2022-08-06T12:11:25;24.30;1.00
11700;DHT22;5906;51.660;6.674;2022-08-06T12:13:54;24.30;6.50
11700;DHT22;5906;51.660;6.674;2022-08-06T12:16:41;24.30;1.00
11700;DHT22;5906;51.660;6.674;2022-08-06T12:19:20;24.30;1.00
11700;DHT22;5906;51.660;6.674;2022-08-06T12:21:53;24.60;1.00
11700;DHT22;5906;51.660;6.674;2022-08-06T12:24:24;24.90;1.00
11700;DHT22;5906;51.660;6.674;2022-08-06T12:27:12;25.10;1.00
11700;DHT22;5906;51.660;6.674;2022-08-06T12:29:39;25.30;1.00
11700;DHT22;5906;51.660;6.674;2022-08-06T12:34:53;25.60;1.00
11700;DHT22;5906;51.660;6.674;2022-08-06T12:37:41;25.70;1.00
11700;DHT22;5906;51.660;6.674;2022-08-06T12:40:18;25.70;1.00
11700;DHT22;5906;51.660;6.674;2022-08-06T12:42:54;26.00;1.00
11700;DHT22;5906;51.660;6.674;2022-08-06T12:45:22;26.50;1.00
11700;DHT22;5906;51.660;6.674;2022-08-06T12:48:11;26.70;1.00
11700;DHT22;5906;51.660;6.674;2022-08-06T12:50:39;26.50;1.00
11700;DHT22;5906;51.660;6.674;2022-08-06T12:53:15;26.40;1.00
11700;DHT22;5906;51.660;6.674;2022-08-06T12:55:54;26.40;1.00
11700;DHT22;5906;51.660;6.674;2022-08-06T12:58:29;26.10;1.00
11700;DHT22;5906;51.660;6.674;2022-08-06T13:01:15;25.60;1.00
11700;DHT22;5906;51.660;6.674;2022-08-06T13:04:05;25.20;1.00
11700;DHT22;5906;51.660;6.674;2022-08-06T13:06:36;25.10;1.00
11700;DHT22;5906;51.660;6.674;2022-08-06T13:09:06;25.10;1.00
11700;DHT22;5906;51.660;6.674;2022-08-06T13:11:36;25.50;1.00
11700;DHT22;5906;51.660;6.674;2022-08-06T13:14:13;25.50;1.00
11700;DHT22;5906;51.660;6.674;2022-08-06T13:16:48;25.60;1.00
11700;DHT22;5906;51.660;6.674;2022-08-06T13:19:23;26.00;1.00
11700;DHT22;5906;51.660;6.674;2022-08-06T13:22:05;26.00;1.00
11700;DHT22;5906;51.660;6.674;2022-08-06T13:24:37;26.10;1.00
11700;DHT22;5906;51.660;6.674;2022-08-06T13:27:34;26.10;1.00
11700;DHT22;5906;51.660;6.674;2022-08-06T13:30:06;26.10;1.00
11700;DHT22;5906;51.660;6.674;2022-08-06T13:32:53;26.00;1.00
11700;DHT22;5906;51.660;6.674;2022-08-06T13:35:26;25.90;1.00
11700;DHT22;5906;51.660;6.674;2022-08-06T13:37:58;26.00;1.00
11700;DHT22;5906;51.660;6.674;2022-08-06T13:40:47;26.00;1.00
11700;DHT22;5906;51.660;6.674;2022-08-06T13:43:36;26.40;1.00
11700;DHT22;5906;51.660;6.674;2022-08-06T13:46:13;26.90;1.00
11700;DHT22;5906;51.660;6.674;2022-08-06T13:48:54;26.90;1.00
11700;DHT22;5906;51.660;6.674;2022-08-06T13:51:24;26.90;1.00
11700;DHT22;5906;51.660;6.674;2022-08-06T13:53:55;27.00;1.00
11700;DHT22;5906;51.660;6.674;2022-08-06T13:56:26;27.00;1.00
11700;DHT22;5906;51.660;6.674;2022-08-06T13:58:56;27.20;1.00
11700;DHT22;5906;51.660;6.674;2022-08-06T14:01:23;27.00;1.00
11700;DHT22;5906;51.660;6.674;2022-08-06T14:04:11;26.90;1.00
11700;DHT22;5906;51.660;6.674;2022-08-06T14:06:40;26.40;1.00
11700;DHT22;5906;51.660;6.674;2022-08-06T14:09:10;26.20;1.00
11700;DHT22;5906;51.660;6.674;2022-08-06T14:11:47;26.00;1.00
11700;DHT22;5906;51.660;6.674;2022-08-06T14:14:18;25.60;1.00
11700;DHT22;5906;51.660;6.674;2022-08-06T14:16:48;25.50;1.00
11700;DHT22;5906;51.660;6.674;2022-08-06T14:19:15;25.30;1.00
11700;DHT22;5906;51.660;6.674;2022-08-06T14:22:02;25.20;1.00
11700;DHT22;5906;51.660;6.674;2022-08-06T14:24:30;25.10;1.00
11700;DHT22;5906;51.660;6.674;2022-08-06T14:27:04;25.00;1.00
11700;DHT22;5906;51.660;6.674;2022-08-06T14:29:51;24.90;1.00
11700;DHT22;5906;51.660;6.674;2022-08-06T14:32:38;24.70;1.00
11700;DHT22;5906;51.660;6.674;2022-08-06T14:35:06;24.60;1.00
11700;DHT22;5906;51.660;6.674;2022-08-06T14:37:33;24.50;1.00
11700;DHT22;5906;51.660;6.674;2022-08-06T14:40:18;24.30;1.00
11700;DHT22;5906;51.660;6.674;2022-08-06T14:43:24;24.20;1.00
11700;DHT22;5906;51.660;6.674;2022-08-06T14:46:23;24.20;1.00
11700;DHT22;5906;51.660;6.674;2022-08-06T14:48:53;24.20;1.00
11700;DHT22;5906;51.660;6.674;2022-08-06T14:51:23;24.10;1.00
11700;DHT22;5906;51.660;6.674;2022-08-06T14:54:03;24.10;1.00
11700;DHT22;5906;51.660;6.674;2022-08-06T14:56:37;24.20;1.00
11700;DHT22;5906;51.660;6.674;2022-08-06T14:59:11;24.10;1.00
11700;DHT22;5906;51.660;6.674;2022-08-06T15:01:38;24.20;1.00
11700;DHT22;5906;51.660;6.674;2022-08-06T15:04:05;24.30;1.00
11700;DHT22;5906;51.660;6.674;2022-08-06T15:06:49;24.40;1.00
11700;DHT22;5906;51.660;6.674;2022-08-06T15:09:20;24.40;1.00
11700;DHT22;5906;51.660;6.674;2022-08-06T15:12:07;24.70;1.00
11700;DHT22;5906;51.660;6.674;2022-08-06T15:14:37;25.00;1.00
11700;DHT22;5906;51.660;6.674;2022-08-06T15:17:16;24.90;1.00
11700;DHT22;5906;51.660;6.674;2022-08-06T15:20:03;25.00;1.00
11700;DHT22;5906;51.660;6.674;2022-08-06T15:22:31;24.90;1.00
11700;DHT22;5906;51.660;6.674;2022-08-06T15:25:03;25.00;1.00
11700;DHT22;5906;51.660;6.674;2022-08-06T15:27:43;24.80;1.00
11700;DHT22;5906;51.660;6.674;2022-08-06T15:30:11;24.90;1.00
11700;DHT22;5906;51.660;6.674;2022-08-06T15:32:38;24.90;1.00
11700;DHT22;5906;51.660;6.674;2022-08-06T15:35:05;24.70;1.00
11700;DHT22;5906;51.660;6.674;2022-08-06T15:37:33;24.50;1.00
11700;DHT22;5906;51.660;6.674;2022-08-06T15:40:20;24.30;1.00
11700;DHT22;5906;51.660;6.674;2022-08-06T15:42:55;24.30;1.00
11700;DHT22;5906;51.660;6.674;2022-08-06T15:45:22;24.60;1.00
11700;DHT22;5906;51.660;6.674;2022-08-06T15:48:08;24.70;1.00
11700;DHT22;5906;51.660;6.674;2022-08-06T15:50:36;25.00;1.00
11700;DHT22;5906;51.660;6.674;2022-08-06T15:53:27;25.10;1.00
11700;DHT22;5906;51.660;6.674;2022-08-06T15:55:56;25.10;1.00
11700;DHT22;5906;51.660;6.674;2022-08-06T15:58:22;25.00;1.00
11700;DHT22;5906;51.660;6.674;2022-08-06T16:00:56;24.80;1.00
11700;DHT22;5906;51.660;6.674;2022-08-06T16:03:30;24.60;1.00
11700;DHT22;5906;51.660;6.674;2022-08-06T16:05:58;24.40;1.00
11700;DHT22;5906;51.660;6.674;2022-08-06T16:08:38;24.30;1.00
11700;DHT22;5906;51.660;6.674;2022-08-06T16:11:13;24.30;1.00
11700;DHT22;5906;51.660;6.674;2022-08-06T16:13:42;24.00;1.00
11700;DHT22;5906;51.660;6.674;2022-08-06T16:16:20;23.90;1.00
11700;DHT22;5906;51.660;6.674;2022-08-06T16:18:52;23.80;1.00
11700;DHT22;5906;51.660;6.674;2022-08-06T16:21:19;23.60;1.00
11700;DHT22;5906;51.660;6.674;2022-08-06T16:23:49;23.60;1.00
11700;DHT22;5906;51.660;6.674;2022-08-06T16:26:23;23.40;1.00
11700;DHT22;5906;51.660;6.674;2022-08-06T16:29:10;23.40;1.00
11700;DHT22;5906;51.660;6.674;2022-08-06T16:31:37;23.30;1.00
11700;DHT22;5906;51.660;6.674;2022-08-06T16:34:14;23.30;1.00
11700;DHT22;5906;51.660;6.674;2022-08-06T16:36:42;23.40;1.00
11700;DHT22;5906;51.660;6.674;2022-08-06T16:39:09;23.50;1.00
11700;DHT22;5906;51.660;6.674;2022-08-06T16:41:40;23.40;1.00
11700;DHT22;5906;51.660;6.674;2022-08-06T16:44:25;23.40;1.00
11700;DHT22;5906;51.660;6.674;2022-08-06T16:47:02;23.50;1.00
11700;DHT22;5906;51.660;6.674;2022-08-06T16:49:32;23.40;1.00
11700;DHT22;5906;51.660;6.674;2022-08-06T16:52:19;23.30;1.00
11700;DHT22;5906;51.660;6.674;2022-08-06T16:55:07;23.40;1.00
11700;DHT22;5906;51.660;6.674;2022-08-06T16:57:34;23.40;1.00
11700;DHT22;5906;51.660;6.674;2022-08-06T17:00:06;23.50;1.00
11700;DHT22;5906;51.660;6.674;2022-08-06T17:02:34;23.40;1.00
11700;DHT22;5906;51.660;6.674;2022-08-06T17:05:24;23.20;1.00
11700;DHT22;5906;51.660;6.674;2022-08-06T17:08:11;23.10;1.00
11700;DHT22;5906;51.660;6.674;2022-08-06T17:10:43;23.20;1.00
11700;DHT22;5906;51.660;6.674;2022-08-06T17:13:24;23.20;1.00
11700;DHT22;5906;51.660;6.674;2022-08-06T17:16:05;23.30;1.00
11700;DHT22;5906;51.660;6.674;2022-08-06T17:18:38;23.30;1.00
11700;DHT22;5906;51.660;6.674;2022-08-06T17:21:08;23.40;1.00
11700;DHT22;5906;51.660;6.674;2022-08-06T17:23:36;23.50;1.00
11700;DHT22;5906;51.660;6.674;2022-08-06T17:26:04;23.50;1.00
11700;DHT22;5906;51.660;6.674;2022-08-06T17:28:33;23.70;1.00
11700;DHT22;5906;51.660;6.674;2022-08-06T17:31:00;24.10;1.00
11700;DHT22;5906;51.660;6.674;2022-08-06T17:33:29;24.60;1.00
11700;DHT22;5906;51.660;6.674;2022-08-06T17:36:06;25.80;1.00
11700;DHT22;5906;51.660;6.674;2022-08-06T17:38:53;27.30;1.00
11700;DHT22;5906;51.660;6.674;2022-08-06T17:41:20;28.00;1.00